CEB435 RPLL-RPVE
Flight info
| Callsign | CEB435 |
|---|---|
| Flight time | N/A |
| Altitude | 23000 |
| Route | RPLL 13 VERD2V VERDE W24 TAPER TAPE7A RPVE 06 |
| Aircraft | A320/L-V/N |
Departure
| Time | 2026-05-04 10:00 |
|---|---|
| Airport | Ninoy Aquino International Airport (RPLL) |
Arrival
| Time | N/A |
|---|---|
| Airport | Godofredo P. Ramos Airport (RPVE) |
| Time | Latitude | Longitude | Altitude | Speed | Heading |
|---|---|---|---|---|---|
| 2026-05-04 09:42 | 14.52192 | 121.01000 | 84 ft | 0 kts | 46° |
| 2026-05-04 09:51 | 14.52154 | 121.00958 | 84 ft | 2 kts | 46° |
| 2026-05-04 09:51 | 14.52143 | 121.00947 | 84 ft | 2 kts | 46° |
| 2026-05-04 09:51 | 14.52136 | 121.00939 | 84 ft | 1 kts | 46° |
| 2026-05-04 09:51 | 14.52124 | 121.00930 | 84 ft | 2 kts | 19° |
| 2026-05-04 09:52 | 14.52110 | 121.00927 | 84 ft | 2 kts | 358° |
| 2026-05-04 09:52 | 14.52095 | 121.00930 | 84 ft | 2 kts | 336° |
| 2026-05-04 09:52 | 14.52085 | 121.00936 | 84 ft | 0 kts | 317° |
| 2026-05-04 09:52 | 14.52080 | 121.00942 | 84 ft | 0 kts | 314° |
| 2026-05-04 09:55 | 14.52098 | 121.00924 | 84 ft | 10 kts | 317° |
| 2026-05-04 09:56 | 14.52131 | 121.00890 | 84 ft | 4 kts | 315° |
| 2026-05-04 09:56 | 14.52173 | 121.00847 | 84 ft | 11 kts | 315° |
| 2026-05-04 09:56 | 14.52239 | 121.00781 | 84 ft | 13 kts | 315° |
| 2026-05-04 09:56 | 14.52308 | 121.00708 | 84 ft | 14 kts | 315° |
| 2026-05-04 09:57 | 14.52380 | 121.00634 | 84 ft | 14 kts | 315° |
| 2026-05-04 09:57 | 14.52454 | 121.00558 | 84 ft | 15 kts | 315° |
| 2026-05-04 09:57 | 14.52513 | 121.00497 | 84 ft | 5 kts | 315° |
| 2026-05-04 09:57 | 14.52539 | 121.00463 | 84 ft | 6 kts | 297° |
| 2026-05-04 09:58 | 14.52545 | 121.00413 | 84 ft | 7 kts | 268° |
| 2026-05-04 09:58 | 14.52541 | 121.00338 | 84 ft | 12 kts | 267° |
| 2026-05-04 09:58 | 14.52537 | 121.00272 | 84 ft | 7 kts | 261° |
| 2026-05-04 10:00 | 14.49445 | 121.03409 | 2378 ft | 150 kts | 138° |
| 2026-05-04 10:00 | 14.48563 | 121.03911 | 2929 ft | 152 kts | 173° |
| 2026-05-04 10:02 | 14.38462 | 121.03578 | 6322 ft | 276 kts | 181° |
| 2026-05-04 10:04 | 14.22846 | 121.03482 | 11707 ft | 355 kts | 181° |
| 2026-05-04 10:04 | 14.20435 | 121.03471 | 12472 ft | 360 kts | 181° |
| 2026-05-04 10:04 | 14.18038 | 121.03460 | 13248 ft | 363 kts | 181° |
| 2026-05-04 10:04 | 14.15536 | 121.03449 | 14050 ft | 366 kts | 181° |
| 2026-05-04 10:05 | 14.13101 | 121.03441 | 14811 ft | 369 kts | 181° |
| 2026-05-04 10:05 | 14.10603 | 121.03432 | 15573 ft | 372 kts | 181° |
| 2026-05-04 10:05 | 14.08200 | 121.03422 | 16288 ft | 375 kts | 181° |
| 2026-05-04 10:05 | 14.05778 | 121.03410 | 16993 ft | 378 kts | 181° |
| 2026-05-04 10:06 | 14.03455 | 121.03400 | 17653 ft | 380 kts | 181° |
| 2026-05-04 10:06 | 14.00820 | 121.03387 | 18385 ft | 383 kts | 181° |
| 2026-05-04 10:06 | 13.98180 | 121.03374 | 19097 ft | 386 kts | 181° |
| 2026-05-04 10:08 | 13.81922 | 121.03302 | 22753 ft | 403 kts | 181° |
| 2026-05-04 10:08 | 13.79344 | 121.03291 | 22835 ft | 404 kts | 181° |